sensor_id;sensor_type;location;lat;lon;timestamp;pressure;altitude;pressure_sealevel;temperature;humidity
17649;BME280;8943;51.110;-4.158;2024-03-02T00:01:11;98358.28;;;8.12;59.83
17649;BME280;8943;51.110;-4.158;2024-03-02T00:03:53;98355.13;;;8.09;59.91
17649;BME280;8943;51.110;-4.158;2024-03-02T00:06:22;98366.03;;;8.06;59.96
17649;BME280;8943;51.110;-4.158;2024-03-02T00:08:57;98363.03;;;8.00;60.14
17649;BME280;8943;51.110;-4.158;2024-03-02T00:11:26;98374.59;;;7.99;60.35
17649;BME280;8943;51.110;-4.158;2024-03-02T00:13:54;98367.81;;;7.97;60.67
17649;BME280;8943;51.110;-4.158;2024-03-02T00:16:30;98370.63;;;7.95;60.61
17649;BME280;8943;51.110;-4.158;2024-03-02T00:19:01;98370.06;;;7.92;60.66
17649;BME280;8943;51.110;-4.158;2024-03-02T00:21:31;98376.50;;;7.89;61.15
17649;BME280;8943;51.110;-4.158;2024-03-02T00:23:59;98378.69;;;7.94;61.45
17649;BME280;8943;51.110;-4.158;2024-03-02T00:26:29;98382.88;;;7.96;61.36
17649;BME280;8943;51.110;-4.158;2024-03-02T00:28:59;98386.53;;;7.95;61.72
17649;BME280;8943;51.110;-4.158;2024-03-02T00:31:28;98381.22;;;7.95;61.69
17649;BME280;8943;51.110;-4.158;2024-03-02T00:34:05;98382.88;;;7.96;61.69
17649;BME280;8943;51.110;-4.158;2024-03-02T00:36:34;98379.06;;;7.99;61.95
17649;BME280;8943;51.110;-4.158;2024-03-02T00:39:02;98378.94;;;8.00;62.01
17649;BME280;8943;51.110;-4.158;2024-03-02T00:41:33;98376.66;;;8.06;62.14
17649;BME280;8943;51.110;-4.158;2024-03-02T00:44:03;98365.09;;;8.15;61.98
17649;BME280;8943;51.110;-4.158;2024-03-02T00:46:35;98354.88;;;8.20;62.12
17649;BME280;8943;51.110;-4.158;2024-03-02T00:49:04;98363.88;;;8.27;61.87
17649;BME280;8943;51.110;-4.158;2024-03-02T00:51:34;98353.44;;;8.34;62.04
17649;BME280;8943;51.110;-4.158;2024-03-02T00:54:04;98348.53;;;8.39;62.03
17649;BME280;8943;51.110;-4.158;2024-03-02T00:56:33;98354.72;;;8.47;62.23
17649;BME280;8943;51.110;-4.158;2024-03-02T00:59:02;98364.69;;;8.54;62.04
17649;BME280;8943;51.110;-4.158;2024-03-02T01:01:30;98353.13;;;8.55;61.87
17649;BME280;8943;51.110;-4.158;2024-03-02T01:04:00;98354.94;;;8.54;61.95
17649;BME280;8943;51.110;-4.158;2024-03-02T01:06:28;98361.56;;;8.50;61.52
17649;BME280;8943;51.110;-4.158;2024-03-02T01:08:57;98357.72;;;8.44;61.42
17649;BME280;8943;51.110;-4.158;2024-03-02T01:11:25;98361.66;;;8.40;61.37
17649;BME280;8943;51.110;-4.158;2024-03-02T01:13:54;98346.72;;;8.39;61.75
17649;BME280;8943;51.110;-4.158;2024-03-02T01:16:23;98352.53;;;8.43;61.54
17649;BME280;8943;51.110;-4.158;2024-03-02T01:18:52;98352.72;;;8.41;61.69
17649;BME280;8943;51.110;-4.158;2024-03-02T01:21:22;98360.38;;;8.44;61.60
17649;BME280;8943;51.110;-4.158;2024-03-02T01:23:50;98354.19;;;8.44;61.28
17649;BME280;8943;51.110;-4.158;2024-03-02T01:26:19;98358.53;;;8.45;61.28
17649;BME280;8943;51.110;-4.158;2024-03-02T01:28:47;98355.88;;;8.45;61.15
17649;BME280;8943;51.110;-4.158;2024-03-02T01:31:15;98359.50;;;8.44;61.43
17649;BME280;8943;51.110;-4.158;2024-03-02T01:33:44;98358.84;;;8.42;61.63
17649;BME280;8943;51.110;-4.158;2024-03-02T01:36:12;98359.00;;;8.40;61.34
17649;BME280;8943;51.110;-4.158;2024-03-02T01:38:42;98357.31;;;8.39;61.20
17649;BME280;8943;51.110;-4.158;2024-03-02T01:41:10;98367.94;;;8.39;61.30
17649;BME280;8943;51.110;-4.158;2024-03-02T01:43:39;98351.19;;;8.39;61.56
17649;BME280;8943;51.110;-4.158;2024-03-02T01:46:08;98345.06;;;8.38;60.96
17649;BME280;8943;51.110;-4.158;2024-03-02T01:48:36;98351.06;;;8.40;60.82
17649;BME280;8943;51.110;-4.158;2024-03-02T01:51:04;98349.53;;;8.38;60.81
17649;BME280;8943;51.110;-4.158;2024-03-02T01:53:33;98351.50;;;8.36;60.63
17649;BME280;8943;51.110;-4.158;2024-03-02T01:56:05;98353.31;;;8.35;61.00
17649;BME280;8943;51.110;-4.158;2024-03-02T01:58:33;98349.31;;;8.31;60.67
17649;BME280;8943;51.110;-4.158;2024-03-02T02:01:03;98348.47;;;8.31;60.86
17649;BME280;8943;51.110;-4.158;2024-03-02T02:03:32;98347.66;;;8.30;60.83
17649;BME280;8943;51.110;-4.158;2024-03-02T02:06:00;98345.81;;;8.31;60.86
17649;BME280;8943;51.110;-4.158;2024-03-02T02:08:29;98338.69;;;8.31;61.12
17649;BME280;8943;51.110;-4.158;2024-03-02T02:10:56;98337.88;;;8.31;61.03
17649;BME280;8943;51.110;-4.158;2024-03-02T02:13:26;98335.34;;;8.29;61.20
17649;BME280;8943;51.110;-4.158;2024-03-02T02:15:55;98338.16;;;8.27;61.34
17649;BME280;8943;51.110;-4.158;2024-03-02T02:18:23;98334.53;;;8.29;61.14
17649;BME280;8943;51.110;-4.158;2024-03-02T02:20:52;98326.72;;;8.27;61.21
17649;BME280;8943;51.110;-4.158;2024-03-02T02:23:22;98330.38;;;8.26;61.30
17649;BME280;8943;51.110;-4.158;2024-03-02T02:25:50;98327.72;;;8.26;61.33
17649;BME280;8943;51.110;-4.158;2024-03-02T02:28:19;98319.75;;;8.26;61.48
17649;BME280;8943;51.110;-4.158;2024-03-02T02:30:47;98320.44;;;8.28;61.51
17649;BME280;8943;51.110;-4.158;2024-03-02T02:33:15;98325.72;;;8.28;61.33
17649;BME280;8943;51.110;-4.158;2024-03-02T02:35:49;98324.44;;;8.32;61.49
17649;BME280;8943;51.110;-4.158;2024-03-02T02:38:17;98324.97;;;8.36;61.33
17649;BME280;8943;51.110;-4.158;2024-03-02T02:40:48;98326.47;;;8.38;61.76
17649;BME280;8943;51.110;-4.158;2024-03-02T02:43:17;98328.13;;;8.39;61.11
17649;BME280;8943;51.110;-4.158;2024-03-02T02:45:45;98326.47;;;8.38;61.65
17649;BME280;8943;51.110;-4.158;2024-03-02T02:48:14;98327.19;;;8.40;61.72
17649;BME280;8943;51.110;-4.158;2024-03-02T02:50:42;98330.69;;;8.49;61.97
17649;BME280;8943;51.110;-4.158;2024-03-02T02:53:11;98331.19;;;8.52;62.17
17649;BME280;8943;51.110;-4.158;2024-03-02T02:55:40;98325.94;;;8.61;61.93
17649;BME280;8943;51.110;-4.158;2024-03-02T02:58:11;98319.81;;;8.68;62.08
17649;BME280;8943;51.110;-4.158;2024-03-02T03:00:40;98333.97;;;8.77;62.34
17649;BME280;8943;51.110;-4.158;2024-03-02T03:03:08;98328.88;;;8.84;62.10
17649;BME280;8943;51.110;-4.158;2024-03-02T03:05:37;98324.88;;;8.88;62.29
17649;BME280;8943;51.110;-4.158;2024-03-02T03:08:05;98327.88;;;8.93;62.33
17649;BME280;8943;51.110;-4.158;2024-03-02T03:10:34;98321.94;;;8.99;62.42
17649;BME280;8943;51.110;-4.158;2024-03-02T03:13:03;98324.78;;;9.06;62.15
17649;BME280;8943;51.110;-4.158;2024-03-02T03:15:36;98326.28;;;9.08;62.38
17649;BME280;8943;51.110;-4.158;2024-03-02T03:18:05;98326.47;;;9.15;62.40
17649;BME280;8943;51.110;-4.158;2024-03-02T03:20:34;98330.59;;;9.17;61.99
17649;BME280;8943;51.110;-4.158;2024-03-02T03:23:03;98333.78;;;9.21;62.19
17649;BME280;8943;51.110;-4.158;2024-03-02T03:25:32;98324.66;;;9.23;62.23
17649;BME280;8943;51.110;-4.158;2024-03-02T03:28:01;98325.50;;;9.24;62.00
17649;BME280;8943;51.110;-4.158;2024-03-02T03:30:31;98329.63;;;9.26;62.03
17649;BME280;8943;51.110;-4.158;2024-03-02T03:33:00;98330.47;;;9.27;61.94
17649;BME280;8943;51.110;-4.158;2024-03-02T03:35:29;98333.47;;;9.24;61.60
17649;BME280;8943;51.110;-4.158;2024-03-02T03:37:58;98340.59;;;9.23;61.77
17649;BME280;8943;51.110;-4.158;2024-03-02T03:40:26;98332.28;;;9.26;61.80
17649;BME280;8943;51.110;-4.158;2024-03-02T03:42:55;98334.47;;;9.23;61.74
17649;BME280;8943;51.110;-4.158;2024-03-02T03:45:24;98336.44;;;9.29;61.56
17649;BME280;8943;51.110;-4.158;2024-03-02T03:47:53;98336.44;;;9.29;61.29
17649;BME280;8943;51.110;-4.158;2024-03-02T03:50:23;98340.78;;;9.30;61.34
17649;BME280;8943;51.110;-4.158;2024-03-02T03:52:52;98321.66;;;9.26;61.13
17649;BME280;8943;51.110;-4.158;2024-03-02T03:55:20;98332.13;;;9.28;61.21
17649;BME280;8943;51.110;-4.158;2024-03-02T03:57:50;98330.97;;;9.31;61.13
17649;BME280;8943;51.110;-4.158;2024-03-02T04:00:18;98327.31;;;9.32;60.95
17649;BME280;8943;51.110;-4.158;2024-03-02T04:02:47;98326.34;;;9.33;60.94
17649;BME280;8943;51.110;-4.158;2024-03-02T04:05:16;98328.31;;;9.31;60.72
17649;BME280;8943;51.110;-4.158;2024-03-02T04:07:46;98330.81;;;9.32;61.02
17649;BME280;8943;51.110;-4.158;2024-03-02T04:10:14;98336.44;;;9.29;61.29
17649;BME280;8943;51.110;-4.158;2024-03-02T04:12:43;98349.75;;;9.29;61.23
17649;BME280;8943;51.110;-4.158;2024-03-02T04:15:12;98342.78;;;9.28;61.08
17649;BME280;8943;51.110;-4.158;2024-03-02T04:17:41;98348.09;;;9.28;60.84
17649;BME280;8943;51.110;-4.158;2024-03-02T04:20:10;98349.91;;;9.27;61.24
17649;BME280;8943;51.110;-4.158;2024-03-02T04:22:40;98348.22;;;9.26;60.99
17649;BME280;8943;51.110;-4.158;2024-03-02T04:25:10;98356.69;;;9.22;60.95
17649;BME280;8943;51.110;-4.158;2024-03-02T04:27:38;98357.84;;;9.19;60.88
17649;BME280;8943;51.110;-4.158;2024-03-02T04:30:08;98357.50;;;9.14;60.69
17649;BME280;8943;51.110;-4.158;2024-03-02T04:32:36;98367.31;;;9.14;60.71
17649;BME280;8943;51.110;-4.158;2024-03-02T04:35:06;98360.94;;;9.07;60.76
17649;BME280;8943;51.110;-4.158;2024-03-02T04:37:35;98370.09;;;9.04;61.13
17649;BME280;8943;51.110;-4.158;2024-03-02T04:40:04;98368.91;;;8.98;60.60
17649;BME280;8943;51.110;-4.158;2024-03-02T04:42:36;98381.50;;;8.96;60.79
17649;BME280;8943;51.110;-4.158;2024-03-02T04:45:06;98372.19;;;8.92;60.64
17649;BME280;8943;51.110;-4.158;2024-03-02T04:47:35;98385.31;;;8.94;60.94
17649;BME280;8943;51.110;-4.158;2024-03-02T04:50:05;98386.81;;;8.88;60.61
17649;BME280;8943;51.110;-4.158;2024-03-02T04:52:34;98391.25;;;8.88;60.57
17649;BME280;8943;51.110;-4.158;2024-03-02T04:55:03;98399.56;;;8.85;60.89
17649;BME280;8943;51.110;-4.158;2024-03-02T04:57:47;98399.84;;;8.82;60.79
17649;BME280;8943;51.110;-4.158;2024-03-02T05:00:18;98401.69;;;8.81;60.71
17649;BME280;8943;51.110;-4.158;2024-03-02T05:02:46;98400.50;;;8.75;60.89
17649;BME280;8943;51.110;-4.158;2024-03-02T05:05:14;98398.66;;;8.76;60.62
17649;BME280;8943;51.110;-4.158;2024-03-02T05:07:43;98406.44;;;8.69;60.74
17649;BME280;8943;51.110;-4.158;2024-03-02T05:10:11;98405.91;;;8.66;60.43
17649;BME280;8943;51.110;-4.158;2024-03-02T05:12:39;98401.59;;;8.65;60.79
17649;BME280;8943;51.110;-4.158;2024-03-02T05:15:28;98399.91;;;8.56;60.62
17649;BME280;8943;51.110;-4.158;2024-03-02T05:17:57;98402.19;;;8.50;60.56
17649;BME280;8943;51.110;-4.158;2024-03-02T05:20:26;98405.13;;;8.47;60.82
17649;BME280;8943;51.110;-4.158;2024-03-02T05:22:55;98411.75;;;8.43;60.67
17649;BME280;8943;51.110;-4.158;2024-03-02T05:25:23;98412.22;;;8.39;60.74
17649;BME280;8943;51.110;-4.158;2024-03-02T05:27:51;98411.38;;;8.38;60.63
17649;BME280;8943;51.110;-4.158;2024-03-02T05:30:19;98421.59;;;8.33;60.52
17649;BME280;8943;51.110;-4.158;2024-03-02T05:32:50;98426.41;;;8.30;60.96
17649;BME280;8943;51.110;-4.158;2024-03-02T05:35:19;98427.81;;;8.24;60.88
17649;BME280;8943;51.110;-4.158;2024-03-02T05:37:47;98433.28;;;8.22;60.62
17649;BME280;8943;51.110;-4.158;2024-03-02T05:40:15;98430.81;;;8.21;60.60
17649;BME280;8943;51.110;-4.158;2024-03-02T05:42:45;98427.44;;;8.19;60.45
17649;BME280;8943;51.110;-4.158;2024-03-02T05:45:14;98427.91;;;8.14;60.50
17649;BME280;8943;51.110;-4.158;2024-03-02T05:47:43;98437.19;;;8.10;60.56
17649;BME280;8943;51.110;-4.158;2024-03-02T05:50:14;98435.66;;;8.08;60.58
17649;BME280;8943;51.110;-4.158;2024-03-02T05:52:42;98450.19;;;8.04;60.69
17649;BME280;8943;51.110;-4.158;2024-03-02T05:55:11;98446.06;;;8.01;60.91
17649;BME280;8943;51.110;-4.158;2024-03-02T05:57:40;98455.97;;;7.99;60.71
17649;BME280;8943;51.110;-4.158;2024-03-02T06:00:22;98450.97;;;7.96;60.49
17649;BME280;8943;51.110;-4.158;2024-03-02T06:02:50;98461.88;;;7.93;60.67
17649;BME280;8943;51.110;-4.158;2024-03-02T06:05:21;98456.72;;;7.91;60.81
17649;BME280;8943;51.110;-4.158;2024-03-02T06:07:49;98473.59;;;7.90;60.63
17649;BME280;8943;51.110;-4.158;2024-03-02T06:10:17;98472.09;;;7.88;60.66
17649;BME280;8943;51.110;-4.158;2024-03-02T06:12:45;98467.78;;;7.87;60.98
17649;BME280;8943;51.110;-4.158;2024-03-02T06:15:14;98472.25;;;7.86;60.77
17649;BME280;8943;51.110;-4.158;2024-03-02T06:17:42;98472.25;;;7.86;60.56
17649;BME280;8943;51.110;-4.158;2024-03-02T06:20:11;98468.63;;;7.87;60.70
17649;BME280;8943;51.110;-4.158;2024-03-02T06:22:41;98473.59;;;7.90;61.00
17649;BME280;8943;51.110;-4.158;2024-03-02T06:25:10;98478.31;;;7.96;61.43
17649;BME280;8943;51.110;-4.158;2024-03-02T06:27:38;98472.69;;;7.99;61.34
17649;BME280;8943;51.110;-4.158;2024-03-02T06:30:08;98479.38;;;8.04;61.09
17649;BME280;8943;51.110;-4.158;2024-03-02T06:32:37;98481.28;;;8.11;61.12
17649;BME280;8943;51.110;-4.158;2024-03-02T06:35:07;98479.13;;;8.15;61.25
17649;BME280;8943;51.110;-4.158;2024-03-02T06:37:40;98472.03;;;8.15;60.87
17649;BME280;8943;51.110;-4.158;2024-03-02T06:40:09;98476.34;;;8.16;60.96
17649;BME280;8943;51.110;-4.158;2024-03-02T06:42:37;98489.44;;;8.18;60.81
17649;BME280;8943;51.110;-4.158;2024-03-02T06:45:06;98483.47;;;8.16;60.69
17649;BME280;8943;51.110;-4.158;2024-03-02T06:47:36;98496.72;;;8.16;60.63
17649;BME280;8943;51.110;-4.158;2024-03-02T06:50:05;98499.38;;;8.16;60.37
17649;BME280;8943;51.110;-4.158;2024-03-02T06:56:37;98512.94;;;8.13;60.55
17649;BME280;8943;51.110;-4.158;2024-03-02T06:59:07;98512.66;;;8.16;60.61
17649;BME280;8943;51.110;-4.158;2024-03-02T07:01:35;98520.59;;;8.16;60.69
17649;BME280;8943;51.110;-4.158;2024-03-02T07:04:06;98516.97;;;8.17;61.10
17649;BME280;8943;51.110;-4.158;2024-03-02T07:06:54;98524.63;;;8.20;60.82
17649;BME280;8943;51.110;-4.158;2024-03-02T07:09:25;98518.00;;;8.24;60.97
17649;BME280;8943;51.110;-4.158;2024-03-02T07:11:56;98527.34;;;8.28;61.15
17649;BME280;8943;51.110;-4.158;2024-03-02T07:14:24;98522.72;;;8.30;60.81
17649;BME280;8943;51.110;-4.158;2024-03-02T07:17:13;98525.06;;;8.33;60.99
17649;BME280;8943;51.110;-4.158;2024-03-02T07:19:42;98531.91;;;8.36;60.74
17649;BME280;8943;51.110;-4.158;2024-03-02T07:22:39;98534.53;;;8.36;61.02
17649;BME280;8943;51.110;-4.158;2024-03-02T07:25:10;98535.94;;;8.40;60.88
17649;BME280;8943;51.110;-4.158;2024-03-02T07:27:44;98535.09;;;8.39;60.91
17649;BME280;8943;51.110;-4.158;2024-03-02T07:30:14;98541.47;;;8.46;60.99
17649;BME280;8943;51.110;-4.158;2024-03-02T07:32:44;98533.66;;;8.45;60.79
17649;BME280;8943;51.110;-4.158;2024-03-02T07:35:13;98539.81;;;8.45;60.78
17649;BME280;8943;51.110;-4.158;2024-03-02T07:37:41;98536.53;;;8.51;60.49
17649;BME280;8943;51.110;-4.158;2024-03-02T07:40:11;98536.06;;;8.56;60.60
17649;BME280;8943;51.110;-4.158;2024-03-02T07:42:39;98542.88;;;8.59;60.61
17649;BME280;8943;51.110;-4.158;2024-03-02T07:45:10;98548.59;;;8.64;60.78
17649;BME280;8943;51.110;-4.158;2024-03-02T07:47:40;98546.97;;;8.71;60.75
17649;BME280;8943;51.110;-4.158;2024-03-02T07:50:09;98551.00;;;8.75;60.67
17649;BME280;8943;51.110;-4.158;2024-03-02T07:52:38;98558.31;;;8.81;60.48
17649;BME280;8943;51.110;-4.158;2024-03-02T07:55:09;98564.00;;;8.86;60.50
17649;BME280;8943;51.110;-4.158;2024-03-02T07:57:38;98568.19;;;8.89;60.41
17649;BME280;8943;51.110;-4.158;2024-03-02T08:00:08;98565.84;;;8.86;60.18
17649;BME280;8943;51.110;-4.158;2024-03-02T08:02:39;98573.63;;;8.87;60.53
17649;BME280;8943;51.110;-4.158;2024-03-02T08:05:12;98570.38;;;8.93;60.50
17649;BME280;8943;51.110;-4.158;2024-03-02T08:07:43;98571.22;;;8.94;59.92
17649;BME280;8943;51.110;-4.158;2024-03-02T08:10:20;98571.88;;;8.96;60.05
17649;BME280;8943;51.110;-4.158;2024-03-02T08:12:48;98578.84;;;8.97;60.37
17649;BME280;8943;51.110;-4.158;2024-03-02T08:15:17;98581.03;;;9.01;59.88
17649;BME280;8943;51.110;-4.158;2024-03-02T08:17:47;98580.03;;;9.02;60.00
17649;BME280;8943;51.110;-4.158;2024-03-02T08:20:24;98578.63;;;9.08;60.13
17649;BME280;8943;51.110;-4.158;2024-03-02T08:22:53;98576.81;;;9.17;60.30
17649;BME280;8943;51.110;-4.158;2024-03-02T08:25:24;98589.69;;;9.29;60.15
17649;BME280;8943;51.110;-4.158;2024-03-02T08:27:53;98589.28;;;9.42;60.35
17649;BME280;8943;51.110;-4.158;2024-03-02T08:30:24;98591.66;;;9.53;60.44
17649;BME280;8943;51.110;-4.158;2024-03-02T08:32:54;98596.69;;;9.65;59.82
17649;BME280;8943;51.110;-4.158;2024-03-02T08:35:22;98599.41;;;9.73;59.33
17649;BME280;8943;51.110;-4.158;2024-03-02T08:37:53;98604.59;;;9.83;58.89
17649;BME280;8943;51.110;-4.158;2024-03-02T08:40:39;98606.91;;;9.77;58.52
17649;BME280;8943;51.110;-4.158;2024-03-02T08:43:08;98611.22;;;9.78;58.60
17649;BME280;8943;51.110;-4.158;2024-03-02T08:45:37;98614.34;;;9.74;58.61
17649;BME280;8943;51.110;-4.158;2024-03-02T08:51:16;98625.19;;;9.80;58.92
17649;BME280;8943;51.110;-4.158;2024-03-02T08:53:46;98615.41;;;9.81;58.64
17649;BME280;8943;51.110;-4.158;2024-03-02T08:56:15;98625.53;;;9.77;58.53
17649;BME280;8943;51.110;-4.158;2024-03-02T08:58:46;98618.53;;;9.76;58.33
17649;BME280;8943;51.110;-4.158;2024-03-02T09:01:16;98620.66;;;9.73;58.28
17649;BME280;8943;51.110;-4.158;2024-03-02T09:09:23;98630.91;;;9.60;58.07
17649;BME280;8943;51.110;-4.158;2024-03-02T09:14:34;98626.56;;;9.59;58.37
17649;BME280;8943;51.110;-4.158;2024-03-02T09:20:33;98637.47;;;9.73;58.68
17649;BME280;8943;51.110;-4.158;2024-03-02T09:25:55;98643.38;;;9.93;58.44
17649;BME280;8943;51.110;-4.158;2024-03-02T11:39:12;98711.47;;;12.26;54.05
17649;BME280;8943;51.110;-4.158;2024-03-02T11:45:27;98707.97;;;12.25;54.57
17649;BME280;8943;51.110;-4.158;2024-03-02T11:54:04;98720.09;;;12.36;52.94
17649;BME280;8943;51.110;-4.158;2024-03-02T12:00:36;98721.47;;;12.24;52.51
17649;BME280;8943;51.110;-4.158;2024-03-02T12:03:33;98731.69;;;12.20;52.95
17649;BME280;8943;51.110;-4.158;2024-03-02T12:08:53;98731.41;;;12.46;53.50
17649;BME280;8943;51.110;-4.158;2024-03-02T12:23:23;98739.31;;;12.71;52.08
17649;BME280;8943;51.110;-4.158;2024-03-02T12:28:44;98728.66;;;12.62;53.25
17649;BME280;8943;51.110;-4.158;2024-03-02T12:31:42;98723.81;;;12.58;53.14
17649;BME280;8943;51.110;-4.158;2024-03-02T12:51:40;98739.34;;;13.25;53.61
17649;BME280;8943;51.110;-4.158;2024-03-02T12:54:11;98752.50;;;13.26;53.72
17649;BME280;8943;51.110;-4.158;2024-03-02T13:17:17;98749.41;;;13.14;52.52
17649;BME280;8943;51.110;-4.158;2024-03-02T13:22:35;98749.38;;;13.23;53.07
17649;BME280;8943;51.110;-4.158;2024-03-02T13:31:04;98756.16;;;13.02;51.59
17649;BME280;8943;51.110;-4.158;2024-03-02T13:33:35;98761.53;;;12.63;52.28
17649;BME280;8943;51.110;-4.158;2024-03-02T13:36:42;98755.63;;;12.45;52.86
17649;BME280;8943;51.110;-4.158;2024-03-02T13:39:38;98754.31;;;12.32;54.59
17649;BME280;8943;51.110;-4.158;2024-03-02T13:42:32;98749.91;;;12.48;55.98
17649;BME280;8943;51.110;-4.158;2024-03-02T13:50:48;98750.25;;;12.84;53.16
17649;BME280;8943;51.110;-4.158;2024-03-02T13:53:50;98777.28;;;12.89;53.40
17649;BME280;8943;51.110;-4.158;2024-03-02T13:56:31;98762.94;;;12.82;53.56
17649;BME280;8943;51.110;-4.158;2024-03-02T13:59:01;98770.63;;;12.85;52.98
17649;BME280;8943;51.110;-4.158;2024-03-02T14:04:49;98777.53;;;13.02;54.41
17649;BME280;8943;51.110;-4.158;2024-03-02T14:08:00;98790.03;;;13.10;53.12
17649;BME280;8943;51.110;-4.158;2024-03-02T14:10:37;98771.66;;;13.07;51.75
17649;BME280;8943;51.110;-4.158;2024-03-02T14:13:26;98791.31;;;12.91;52.27
17649;BME280;8943;51.110;-4.158;2024-03-02T14:15:55;98791.31;;;12.91;52.62
17649;BME280;8943;51.110;-4.158;2024-03-02T14:21:03;98787.66;;;13.15;52.93
17649;BME280;8943;51.110;-4.158;2024-03-02T14:23:35;98799.81;;;13.26;52.97
17649;BME280;8943;51.110;-4.158;2024-03-02T14:26:12;98807.41;;;13.37;51.68
17649;BME280;8943;51.110;-4.158;2024-03-02T14:28:42;98792.97;;;12.92;52.55
17649;BME280;8943;51.110;-4.158;2024-03-02T14:31:17;98809.06;;;13.15;51.70
17649;BME280;8943;51.110;-4.158;2024-03-02T14:52:51;98830.84;;;13.35;49.95
17649;BME280;8943;51.110;-4.158;2024-03-02T14:55:28;98825.16;;;13.38;51.46
17649;BME280;8943;51.110;-4.158;2024-03-02T14:58:02;98838.59;;;13.53;51.44
17649;BME280;8943;51.110;-4.158;2024-03-02T15:01:00;98831.22;;;13.78;51.44
17649;BME280;8943;51.110;-4.158;2024-03-02T15:04:10;98826.50;;;13.80;50.53
17649;BME280;8943;51.110;-4.158;2024-03-02T15:07:34;98841.56;;;13.81;49.37
17649;BME280;8943;51.110;-4.158;2024-03-02T15:11:19;98827.19;;;13.82;50.40
17649;BME280;8943;51.110;-4.158;2024-03-02T15:19:43;98839.06;;;12.94;49.90
17649;BME280;8943;51.110;-4.158;2024-03-02T15:22:22;98842.91;;;12.44;51.27
17649;BME280;8943;51.110;-4.158;2024-03-02T15:24:53;98865.66;;;12.16;52.48
17649;BME280;8943;51.110;-4.158;2024-03-02T15:27:55;98868.97;;;11.77;52.78
17649;BME280;8943;51.110;-4.158;2024-03-02T15:30:39;98863.25;;;11.39;53.72
17649;BME280;8943;51.110;-4.158;2024-03-02T15:33:08;98878.50;;;11.13;54.25
17649;BME280;8943;51.110;-4.158;2024-03-02T15:35:36;98868.06;;;10.85;55.77
17649;BME280;8943;51.110;-4.158;2024-03-02T15:38:07;98885.19;;;10.74;56.68
17649;BME280;8943;51.110;-4.158;2024-03-02T15:40:58;98880.63;;;10.67;56.21
17649;BME280;8943;51.110;-4.158;2024-03-02T15:43:29;98883.97;;;10.69;56.79
17649;BME280;8943;51.110;-4.158;2024-03-02T15:45:58;98893.94;;;10.67;56.93
17649;BME280;8943;51.110;-4.158;2024-03-02T15:48:28;98883.66;;;10.72;56.67
17649;BME280;8943;51.110;-4.158;2024-03-02T15:51:01;98895.50;;;10.77;57.28
17649;BME280;8943;51.110;-4.158;2024-03-02T15:53:33;98892.03;;;10.85;56.83
17649;BME280;8943;51.110;-4.158;2024-03-02T15:56:09;98889.44;;;11.01;57.61
17649;BME280;8943;51.110;-4.158;2024-03-02T15:59:05;98904.56;;;11.35;57.59
17649;BME280;8943;51.110;-4.158;2024-03-02T16:01:33;98910.13;;;11.58;57.21
17649;BME280;8943;51.110;-4.158;2024-03-02T16:04:07;98912.84;;;11.91;55.98
17649;BME280;8943;51.110;-4.158;2024-03-02T16:06:49;98907.69;;;12.14;55.50
17649;BME280;8943;51.110;-4.158;2024-03-02T16:09:26;98918.38;;;12.22;54.57
17649;BME280;8943;51.110;-4.158;2024-03-02T16:12:18;98916.06;;;12.10;54.74
17649;BME280;8943;51.110;-4.158;2024-03-02T16:14:56;98914.22;;;12.11;55.86
17649;BME280;8943;51.110;-4.158;2024-03-02T16:17:27;98919.06;;;12.07;55.23
17649;BME280;8943;51.110;-4.158;2024-03-02T16:20:15;98917.69;;;11.95;55.83
17649;BME280;8943;51.110;-4.158;2024-03-02T16:22:45;98916.53;;;11.90;55.77
17649;BME280;8943;51.110;-4.158;2024-03-02T16:25:15;98926.03;;;11.84;55.51
17649;BME280;8943;51.110;-4.158;2024-03-02T16:28:00;98924.47;;;11.65;55.57
17649;BME280;8943;51.110;-4.158;2024-03-02T16:30:51;98924.47;;;11.57;55.34
17649;BME280;8943;51.110;-4.158;2024-03-02T16:33:27;98924.09;;;11.44;56.48
17649;BME280;8943;51.110;-4.158;2024-03-02T16:36:13;98921.06;;;11.39;56.75
17649;BME280;8943;51.110;-4.158;2024-03-02T16:38:42;98925.91;;;11.43;56.21
17649;BME280;8943;51.110;-4.158;2024-03-02T16:41:11;98924.03;;;11.27;56.63
17649;BME280;8943;51.110;-4.158;2024-03-02T16:46:13;98925.72;;;11.28;57.04
17649;BME280;8943;51.110;-4.158;2024-03-02T16:48:50;98928.84;;;11.24;56.97
17649;BME280;8943;51.110;-4.158;2024-03-02T16:51:20;98938.47;;;11.17;56.96
17649;BME280;8943;51.110;-4.158;2024-03-02T16:53:52;98951.53;;;11.28;58.09
17649;BME280;8943;51.110;-4.158;2024-03-02T16:57:05;98949.56;;;11.38;57.99
17649;BME280;8943;51.110;-4.158;2024-03-02T16:59:38;98953.72;;;11.41;57.68
17649;BME280;8943;51.110;-4.158;2024-03-02T17:02:24;98959.94;;;11.49;58.14
17649;BME280;8943;51.110;-4.158;2024-03-02T17:04:54;98951.81;;;11.67;57.87
17649;BME280;8943;51.110;-4.158;2024-03-02T17:07:23;98956.53;;;11.81;58.25
17649;BME280;8943;51.110;-4.158;2024-03-02T17:10:06;98956.41;;;12.07;58.99
17649;BME280;8943;51.110;-4.158;2024-03-02T17:12:34;98953.09;;;12.38;58.69
17649;BME280;8943;51.110;-4.158;2024-03-02T17:15:03;98951.53;;;12.84;59.81
17649;BME280;8943;51.110;-4.158;2024-03-02T17:17:34;98950.75;;;13.15;57.77
17649;BME280;8943;51.110;-4.158;2024-03-02T17:20:04;98957.66;;;13.01;56.45
17649;BME280;8943;51.110;-4.158;2024-03-02T17:33:17;98974.28;;;12.31;56.53
17649;BME280;8943;51.110;-4.158;2024-03-02T17:35:48;98970.44;;;12.18;55.59
17649;BME280;8943;51.110;-4.158;2024-03-02T17:38:19;98970.41;;;12.09;54.81
17649;BME280;8943;51.110;-4.158;2024-03-02T17:44:08;98982.09;;;11.92;54.48
17649;BME280;8943;51.110;-4.158;2024-03-02T17:46:55;98976.91;;;11.91;53.94
17649;BME280;8943;51.110;-4.158;2024-03-02T17:49:58;98985.53;;;11.76;52.10
17649;BME280;8943;51.110;-4.158;2024-03-02T17:53:18;99001.00;;;11.65;52.14
17649;BME280;8943;51.110;-4.158;2024-03-02T17:55:51;99007.16;;;11.57;53.38
17649;BME280;8943;51.110;-4.158;2024-03-02T17:58:28;98999.28;;;11.47;53.17
17649;BME280;8943;51.110;-4.158;2024-03-02T18:01:16;99004.91;;;11.44;53.54
17649;BME280;8943;51.110;-4.158;2024-03-02T18:04:15;99003.22;;;11.35;53.49
17649;BME280;8943;51.110;-4.158;2024-03-02T18:06:46;99007.88;;;11.33;53.63
17649;BME280;8943;51.110;-4.158;2024-03-02T18:09:16;99016.19;;;11.30;54.26
17649;BME280;8943;51.110;-4.158;2024-03-02T18:11:46;99020.84;;;11.28;53.52
17649;BME280;8943;51.110;-4.158;2024-03-02T18:14:20;99018.31;;;11.26;53.84
17649;BME280;8943;51.110;-4.158;2024-03-02T18:17:05;99022.16;;;11.24;54.07
17649;BME280;8943;51.110;-4.158;2024-03-02T18:19:49;99030.28;;;11.22;53.23
17649;BME280;8943;51.110;-4.158;2024-03-02T18:26:00;99032.69;;;11.07;53.30